Time;durP1;ratioP1;P1;durP2;ratioP2;P2;SDS_P1;SDS_P2;PMS_P1;PMS_P2;Temp;Humidity;BMP_temperature;BMP_pressure;BME280_temperature;BME280_humidity;BME280_pressure;Samples;Min_cycle;Max_cycle;Signal;HPM_P1;HPM_P2
2022/12/14 00:01:45;;;;;;;11.60;10.95;;;1.60;99.90;;;;;;5087230;28;20035;-75
2022/12/14 00:04:10;;;;;;;0.13;0.13;;;1.60;99.90;;;;;;5086986;28;20059;-74
2022/12/14 00:06:37;;;;;;;28.98;27.60;;;1.60;99.90;;;;;;5066806;28;20044;-74
2022/12/14 00:09:04;;;;;;;0.38;0.38;;;1.50;99.90;;;;;;5066919;28;20032;-74
2022/12/14 00:11:32;;;;;;;0.10;0.10;;;1.60;99.90;;;;;;5063760;28;20024;-75
2022/12/14 00:14:00;;;;;;;0.10;0.10;;;1.70;99.90;;;;;;5065871;28;20659;-74
2022/12/14 00:16:29;;;;;;;0.13;0.13;;;1.60;99.90;;;;;;5052794;28;20506;-74
2022/12/14 00:18:57;;;;;;;0.38;0.38;;;3.40;99.90;;;;;;5068858;28;20245;-75
2022/12/14 00:21:23;;;;;;;0.55;0.55;;;1.70;99.90;;;;;;5068738;28;20039;-74
2022/12/14 00:23:50;;;;;;;0.15;0.15;;;1.70;99.90;;;;;;5068573;28;20039;-75
2022/12/14 00:26:35;;;;;;;0.20;0.20;;;1.70;99.90;;;;;;5063743;28;20079;-75
2022/12/14 00:29:03;;;;;;;1.20;1.20;;;1.70;99.90;;;;;;5067820;28;20060;-74
2022/12/14 00:31:30;;;;;;;3.00;2.90;;;1.80;99.90;;;;;;5068048;28;20028;-74
2022/12/14 00:33:56;;;;;;;0.10;0.10;;;1.80;99.90;;;;;;5067228;28;20084;-74
2022/12/14 00:36:22;;;;;;;1.15;1.15;;;1.80;99.90;;;;;;5065132;28;20428;-75
2022/12/14 00:38:48;;;;;;;0.10;0.10;;;1.80;99.90;;;;;;5061784;28;20033;-74
2022/12/14 00:41:14;;;;;;;0.10;0.10;;;1.70;99.90;;;;;;5060934;28;20027;-74
2022/12/14 00:43:39;;;;;;;0.10;0.10;;;1.80;99.90;;;;;;5061279;28;20498;-75
2022/12/14 00:46:05;;;;;;;13.07;12.50;;;1.80;99.90;;;;;;5065493;28;20037;-75
2022/12/14 00:48:31;;;;;;;12.35;11.50;;;1.70;99.90;;;;;;5060517;28;20048;-75
2022/12/14 00:50:57;;;;;;;9.68;9.20;;;1.70;99.90;;;;;;5061282;28;20526;-75
2022/12/14 00:53:24;;;;;;;7.05;6.80;;;1.70;99.90;;;;;;5063251;28;20096;-75
2022/12/14 00:55:50;;;;;;;20.05;19.08;;;1.60;99.90;;;;;;5067720;28;20031;-74
2022/12/14 00:58:19;;;;;;;0.10;0.10;;;1.60;99.90;;;;;;5028248;28;20035;-74
2022/12/14 01:00:47;;;;;;;2.22;2.15;;;1.60;99.90;;;;;;5065544;28;20025;-75
2022/12/14 01:03:16;;;;;;;2.70;2.60;;;1.50;99.90;;;;;;5061113;28;20027;-74
2022/12/14 01:05:41;;;;;;;0.10;0.10;;;1.40;99.90;;;;;;5060768;28;20143;-75
2022/12/14 01:08:07;;;;;;;0.10;0.10;;;1.30;99.90;;;;;;5060698;28;20366;-74
2022/12/14 01:10:36;;;;;;;1.90;1.90;;;1.40;99.90;;;;;;5060986;28;20029;-75
2022/12/14 01:13:02;;;;;;;8.20;7.75;;;1.90;99.90;;;;;;5060831;28;20170;-74
2022/12/14 01:15:28;;;;;;;15.27;14.10;;;1.30;99.90;;;;;;5042230;28;20370;-75
2022/12/14 01:17:54;;;;;;;0.10;0.10;;;1.30;99.90;;;;;;5061623;28;20017;-74
2022/12/14 01:20:20;;;;;;;2.53;2.45;;;1.30;99.90;;;;;;5063755;28;20467;-74
2022/12/14 01:22:45;;;;;;;0.28;0.28;;;1.20;99.90;;;;;;5060355;28;20127;-74
2022/12/14 01:25:12;;;;;;;0.10;0.10;;;1.20;99.90;;;;;;5078763;28;20052;-74
2022/12/14 01:27:40;;;;;;;15.50;14.80;;;1.30;99.90;;;;;;5087540;28;20021;-74
2022/12/14 01:30:07;;;;;;;5.85;5.55;;;1.30;99.90;;;;;;5066070;28;20524;-74
2022/12/14 01:32:33;;;;;;;0.50;0.50;;;1.30;99.90;;;;;;5078638;28;20025;-74
2022/12/14 01:34:59;;;;;;;0.10;0.10;;;1.30;99.90;;;;;;5063944;28;20121;-74
2022/12/14 01:37:25;;;;;;;0.10;0.10;;;1.30;99.90;;;;;;5082438;28;20036;-75
2022/12/14 01:39:52;;;;;;;14.00;13.38;;;1.30;99.90;;;;;;5078057;28;20064;-75
2022/12/14 01:42:18;;;;;;;2.50;2.40;;;1.30;99.90;;;;;;5079172;28;20012;-74
2022/12/14 01:44:43;;;;;;;0.10;0.10;;;1.30;99.90;;;;;;5081945;28;20024;-74
2022/12/14 01:47:48;;;;;;;27.90;25.17;;;1.30;99.90;;;;;;5059538;28;20036;-74
2022/12/14 01:50:36;;;;;;;5.95;5.72;;;1.30;99.90;;;;;;4981993;28;20023;-74
2022/12/14 01:53:08;;;;;;;3.33;3.22;;;1.30;99.90;;;;;;4927802;29;20214;-74
2022/12/14 01:55:42;;;;;;;8.60;8.30;;;1.30;99.90;;;;;;4922320;29;20036;-75
2022/12/14 01:58:18;;;;;;;11.27;10.63;;;1.30;99.90;;;;;;4927185;29;20039;-74
2022/12/14 02:00:44;;;;;;;0.13;0.13;;;1.20;99.90;;;;;;4921307;29;20032;-75
2022/12/14 02:03:16;;;;;;;0.38;0.38;;;1.10;99.90;;;;;;4921637;29;20505;-74
2022/12/14 02:05:50;;;;;;;0.20;0.20;;;1.10;99.90;;;;;;4924186;29;20128;-74
2022/12/14 02:08:18;;;;;;;8.02;7.75;;;1.00;99.90;;;;;;4905445;29;20475;-75
2022/12/14 02:10:45;;;;;;;1.17;1.13;;;1.00;99.90;;;;;;4920049;29;20036;-74
2022/12/14 02:13:24;;;;;;;33.83;31.30;;;0.50;99.90;;;;;;4921059;29;20035;-74
2022/12/14 02:15:50;;;;;;;0.17;0.17;;;1.00;99.90;;;;;;4920048;29;20024;-74
2022/12/14 02:18:20;;;;;;;27.35;24.40;;;0.90;99.90;;;;;;4922688;29;20035;-75
2022/12/14 02:21:15;;;;;;;0.33;0.33;;;0.90;99.90;;;;;;4927512;29;20034;-74
2022/12/14 02:24:02;;;;;;;0.10;0.10;;;0.90;99.90;;;;;;4955898;28;20058;-74
2022/12/14 02:26:56;;;;;;;2.00;1.90;;;0.90;99.90;;;;;;4983234;28;20062;-77
2022/12/14 02:29:45;;;;;;;0.80;0.80;;;1.00;99.90;;;;;;5000435;28;20037;-75
2022/12/14 02:32:43;;;;;;;0.10;0.10;;;1.00;99.90;;;;;;5000114;28;20026;-75
2022/12/14 02:35:32;;;;;;;0.52;0.52;;;1.10;99.90;;;;;;4996737;28;20022;-75
2022/12/14 02:38:16;;;;;;;0.22;0.22;;;1.20;99.90;;;;;;5004159;28;20022;-75
2022/12/14 02:40:53;;;;;;;1.65;1.58;;;1.30;99.90;;;;;;5006370;28;20034;-74
2022/12/14 02:43:30;;;;;;;0.32;0.32;;;1.30;99.90;;;;;;5001604;28;20022;-74
2022/12/14 02:46:20;;;;;;;0.23;0.23;;;1.30;99.90;;;;;;4999623;28;20030;-74
2022/12/14 02:49:14;;;;;;;0.10;0.10;;;1.40;99.90;;;;;;5002566;28;20023;-74
2022/12/14 02:52:01;;;;;;;0.10;0.10;;;1.40;99.90;;;;;;4988908;28;20375;-74
2022/12/14 02:55:10;;;;;;;0.20;0.20;;;1.50;99.90;;;;;;5001434;28;20093;-74
2022/12/14 02:57:57;;;;;;;0.13;0.13;;;1.50;99.90;;;;;;5002933;28;20033;-75
2022/12/14 03:00:40;;;;;;;9.15;8.85;;;1.60;99.90;;;;;;5001965;28;20061;-74
2022/12/14 03:03:29;;;;;;;0.10;0.10;;;1.60;99.90;;;;;;4999201;28;20333;-74
2022/12/14 03:05:59;;;;;;;0.10;0.10;;;1.50;99.90;;;;;;5001069;28;20106;-76
2022/12/14 03:08:28;;;;;;;0.10;0.10;;;1.50;99.90;;;;;;5029191;28;20037;-75
2022/12/14 03:11:04;;;;;;;8.02;7.68;;;1.60;99.90;;;;;;5065964;28;20120;-74
2022/12/14 03:13:47;;;;;;;3.05;2.95;;;1.60;99.90;;;;;;5066134;28;20052;-75
2022/12/14 03:16:38;;;;;;;28.10;24.83;;;1.70;99.90;;;;;;5049302;28;20022;-74
2022/12/14 03:19:34;;;;;;;27.60;25.55;;;1.60;99.90;;;;;;5053606;28;20060;-74
2022/12/14 03:22:16;;;;;;;0.20;0.20;;;1.50;99.90;;;;;;5010858;28;20309;-74
2022/12/14 03:24:57;;;;;;;0.10;0.10;;;1.50;99.90;;;;;;5002568;28;20686;-74
2022/12/14 03:27:33;;;;;;;7.30;6.82;;;1.50;99.90;;;;;;5002895;28;20033;-74
2022/12/14 03:30:04;;;;;;;1.08;1.08;;;2.00;99.90;;;;;;5003903;28;20053;-74
2022/12/14 03:32:33;;;;;;;1.65;1.58;;;1.40;99.90;;;;;;4987251;28;20077;-74
2022/12/14 03:35:02;;;;;;;0.17;0.17;;;1.30;99.90;;;;;;5002022;28;20033;-75
2022/12/14 03:37:39;;;;;;;0.17;0.17;;;1.20;99.90;;;;;;4986418;28;20037;-74
2022/12/14 03:40:11;;;;;;;0.10;0.10;;;1.20;99.90;;;;;;5005930;28;20042;-76
2022/12/14 03:43:01;;;;;;;0.13;0.13;;;1.20;99.90;;;;;;5001070;28;20548;-75
2022/12/14 03:45:47;;;;;;;0.20;0.20;;;1.10;99.90;;;;;;5000964;28;20058;-75
2022/12/14 03:48:15;;;;;;;0.20;0.20;;;1.10;99.90;;;;;;5004087;28;20034;-75
2022/12/14 03:50:49;;;;;;;0.50;0.50;;;1.10;99.90;;;;;;5002158;28;20037;-74
2022/12/14 03:53:44;;;;;;;9.60;9.15;;;1.10;99.90;;;;;;5001905;28;20240;-75
2022/12/14 03:56:18;;;;;;;0.10;0.10;;;1.10;99.90;;;;;;4998166;28;20026;-75
2022/12/14 03:58:53;;;;;;;0.10;0.10;;;1.10;99.90;;;;;;5034939;28;20115;-74
2022/12/14 04:01:25;;;;;;;0.10;0.10;;;3.40;99.90;;;;;;5046843;28;20021;-74
2022/12/14 04:03:59;;;;;;;5.65;5.45;;;1.20;99.90;;;;;;5044331;28;20496;-74
2022/12/14 04:07:06;;;;;;;3.50;3.40;;;1.30;99.90;;;;;;5063272;28;20052;-75
2022/12/14 04:09:48;;;;;;;0.10;0.10;;;2.40;99.90;;;;;;5065749;28;20024;-74
2022/12/14 04:21:09;;;;;;;0.20;0.20;;;1.30;99.90;;;;;;5063717;28;20284;-74
2022/12/14 04:26:33;;;;;;;2.97;2.83;;;1.40;99.90;;;;;;5065681;28;20039;-74
2022/12/14 04:32:01;;;;;;;0.25;0.25;;;1.30;99.90;;;;;;5064183;28;20443;-75
2022/12/14 04:34:28;;;;;;;2.65;2.55;;;1.50;99.90;;;;;;5047744;28;20207;-74
2022/12/14 04:36:57;;;;;;;8.15;7.55;;;1.50;99.90;;;;;;5069608;28;20084;-75
2022/12/14 04:39:32;;;;;;;3.60;3.40;;;1.60;99.90;;;;;;5084069;28;20033;-74
2022/12/14 04:42:01;;;;;;;3.03;2.92;;;1.70;99.90;;;;;;5067387;28;20260;-76
2022/12/14 04:44:44;;;;;;;1.88;1.85;;;1.60;99.90;;;;;;5071572;28;20032;-74
2022/12/14 04:47:16;;;;;;;7.97;7.53;;;1.70;99.90;;;;;;5051235;28;20031;-75
2022/12/14 04:49:49;;;;;;;0.90;0.90;;;1.60;99.90;;;;;;5049906;28;20087;-75
2022/12/14 04:52:28;;;;;;;12.32;11.80;;;1.70;99.90;;;;;;5064417;28;20031;-74
2022/12/14 04:54:57;;;;;;;0.10;0.10;;;1.60;99.90;;;;;;5065134;28;20131;-75
2022/12/14 04:57:25;;;;;;;1.05;1.05;;;1.70;99.90;;;;;;5066196;28;20029;-75
2022/12/14 04:59:52;;;;;;;0.10;0.10;;;;;;;;;;5071977;28;20504;-75
2022/12/14 05:02:17;;;;;;;29.15;27.30;;;1.70;99.90;;;;;;5071864;28;20250;-74
2022/12/14 05:05:11;;;;;;;2.20;2.10;;;-0.50;99.90;;;;;;5071436;28;20052;-75
2022/12/14 05:07:59;;;;;;;0.73;0.73;;;1.60;99.90;;;;;;5049887;28;20043;-75
2022/12/14 05:10:59;;;;;;;1.30;1.30;;;1.60;99.90;;;;;;5064091;28;20761;-74
2022/12/14 05:13:35;;;;;;;1.00;1.00;;;1.60;99.90;;;;;;5031164;28;20025;-74
2022/12/14 05:16:22;;;;;;;1.38;1.38;;;1.60;99.90;;;;;;5063191;28;20017;-75
2022/12/14 05:18:49;;;;;;;0.10;0.10;;;1.60;99.90;;;;;;5020608;28;20033;-74
2022/12/14 05:24:00;;;;;;;;;;;1.60;99.90;;;;;;5029900;28;20602;-75
2022/12/14 05:26:27;;;;;;;0.10;0.10;;;1.60;99.90;;;;;;5033500;28;19913;-74
2022/12/14 05:28:53;;;;;;;0.40;0.40;;;1.60;99.90;;;;;;5023943;28;20026;-75
2022/12/14 05:31:18;;;;;;;12.57;11.88;;;1.60;99.90;;;;;;5030065;28;20041;-74
2022/12/14 05:34:04;;;;;;;0.45;0.45;;;1.60;99.90;;;;;;5036954;28;20029;-74
2022/12/14 05:36:34;;;;;;;19.15;18.40;;;1.60;99.90;;;;;;5038313;28;20026;-75
2022/12/14 05:39:00;;;;;;;0.10;0.10;;;1.60;99.90;;;;;;5032921;28;20033;-74
2022/12/14 05:41:25;;;;;;;0.65;0.65;;;1.60;99.90;;;;;;5030760;28;20617;-74
2022/12/14 05:43:51;;;;;;;0.20;0.20;;;1.60;99.90;;;;;;5037556;28;20095;-74
2022/12/14 05:46:17;;;;;;;0.10;0.10;;;1.60;99.90;;;;;;5027850;28;20034;-75
2022/12/14 05:48:43;;;;;;;0.75;0.75;;;1.60;99.90;;;;;;5024558;28;20018;-75
2022/12/14 05:51:11;;;;;;;0.10;0.10;;;1.60;99.90;;;;;;5065412;28;20035;-74
2022/12/14 05:53:39;;;;;;;12.65;11.70;;;1.60;99.90;;;;;;5068443;28;20044;-75
2022/12/14 05:56:25;;;;;;;0.10;0.10;;;1.60;99.90;;;;;;5075742;28;20052;-75
2022/12/14 05:58:51;;;;;;;0.25;0.25;;;1.60;99.90;;;;;;5032395;28;20041;-74
2022/12/14 06:01:17;;;;;;;0.30;0.30;;;1.60;99.90;;;;;;5037512;28;20037;-75
2022/12/14 06:03:42;;;;;;;0.10;0.10;;;1.60;99.90;;;;;;5039024;28;20117;-75
2022/12/14 06:06:12;;;;;;;1.20;1.20;;;1.70;99.90;;;;;;5022785;28;20046;-75
2022/12/14 06:09:04;;;;;;;0.10;0.10;;;1.70;99.90;;;;;;5035455;28;20523;-75
2022/12/14 06:11:49;;;;;;;0.10;0.10;;;1.70;99.90;;;;;;4977529;28;20043;-75
2022/12/14 06:14:17;;;;;;;0.10;0.10;;;2.60;99.90;;;;;;4932080;29;20035;-75
2022/12/14 06:16:44;;;;;;;2.53;2.42;;;1.70;99.90;;;;;;4951742;29;20459;-74
2022/12/14 06:19:32;;;;;;;0.10;0.10;;;1.70;99.90;;;;;;4951266;29;20031;-75
2022/12/14 06:21:58;;;;;;;10.23;9.77;;;1.80;99.90;;;;;;4931148;29;20191;-75
2022/12/14 06:24:46;;;;;;;1.85;1.75;;;1.90;99.90;;;;;;4930439;29;20039;-75
2022/12/14 06:27:31;;;;;;;11.00;10.50;;;1.90;99.90;;;;;;4927376;29;20042;-75
2022/12/14 06:30:37;;;;;;;0.38;0.38;;;1.90;99.90;;;;;;4913213;29;20047;-74
2022/12/14 06:33:03;;;;;;;0.25;0.25;;;1.90;99.90;;;;;;4858041;29;20048;-75
2022/12/14 06:35:29;;;;;;;53.65;50.15;;;1.90;99.90;;;;;;4859957;29;20017;-75
2022/12/14 06:37:54;;;;;;;12.05;11.32;;;1.90;99.90;;;;;;4865806;29;20050;-74
2022/12/14 06:40:21;;;;;;;0.00;0.00;;;1.90;99.90;;;;;;4866688;29;20070;-75
2022/12/14 06:42:47;;;;;;;0.88;0.85;;;1.90;99.90;;;;;;4899684;29;20040;-75
2022/12/14 06:45:14;;;;;;;7.47;7.07;;;1.90;99.90;;;;;;4925794;29;20051;-74
2022/12/14 06:47:40;;;;;;;7.25;6.95;;;;;;;;;;4924289;29;20063;-75
2022/12/14 06:50:28;;;;;;;0.10;0.10;;;1.90;99.90;;;;;;4941312;29;20044;-77
2022/12/14 06:53:14;;;;;;;0.10;0.10;;;1.80;99.90;;;;;;4942250;29;20345;-74
2022/12/14 06:55:39;;;;;;;0.10;0.10;;;1.80;99.90;;;;;;4908452;29;20036;-75
2022/12/14 06:58:12;;;;;;;32.25;30.45;;;1.90;99.90;;;;;;4896584;29;20043;-75
2022/12/14 07:00:38;;;;;;;0.00;0.00;;;1.80;99.90;;;;;;4920699;29;20591;-74
2022/12/14 07:03:04;;;;;;;3.92;3.83;;;1.80;99.90;;;;;;4964487;28;20286;-75
2022/12/14 07:05:30;;;;;;;7.38;7.03;;;1.80;99.90;;;;;;5028874;28;20117;-75
2022/12/14 07:07:55;;;;;;;0.17;0.17;;;1.90;99.90;;;;;;5035625;28;20101;-75
2022/12/14 07:10:21;;;;;;;2.40;2.30;;;1.90;99.90;;;;;;5042384;28;20064;-75
2022/12/14 07:13:08;;;;;;;6.68;6.43;;;1.90;99.90;;;;;;5027530;28;20052;-75
2022/12/14 07:15:38;;;;;;;0.22;0.22;;;1.90;99.90;;;;;;4987557;28;20119;-75
2022/12/14 07:18:04;;;;;;;4.90;4.68;;;1.90;99.90;;;;;;4966279;28;20041;-75
2022/12/14 07:20:31;;;;;;;2.97;1.98;;;1.90;99.90;;;;;;4982980;28;20320;-75
2022/12/14 07:22:57;;;;;;;2.10;2.08;;;-0.10;99.90;;;;;;4983832;28;20784;-74
2022/12/14 07:25:23;;;;;;;0.10;0.10;;;;;;;;;;4984612;28;20042;-75
2022/12/14 07:27:50;;;;;;;0.10;0.10;;;2.00;99.90;;;;;;4983809;28;20101;-75
2022/12/14 07:30:19;;;;;;;18.33;17.30;;;1.90;99.90;;;;;;4982851;28;20042;-75
2022/12/14 07:32:45;;;;;;;0.28;0.28;;;2.80;99.90;;;;;;5000852;28;20046;-75
2022/12/14 07:35:11;;;;;;;1.65;1.58;;;2.00;99.90;;;;;;5021800;28;20039;-75
2022/12/14 07:37:37;;;;;;;1.15;1.15;;;2.00;99.90;;;;;;5021589;28;20105;-75
2022/12/14 07:40:04;;;;;;;0.10;0.10;;;2.10;99.90;;;;;;5021666;28;20105;-75
2022/12/14 07:42:29;;;;;;;0.15;0.15;;;1.90;99.90;;;;;;5024379;28;20022;-75
2022/12/14 07:44:55;;;;;;;0.80;0.80;;;2.20;99.90;;;;;;4991148;28;20046;-75
2022/12/14 07:47:21;;;;;;;0.08;0.08;;;3.30;99.90;;;;;;5061128;28;20032;-75
2022/12/14 07:49:47;;;;;;;1.00;1.00;;;2.20;99.90;;;;;;5071658;28;20173;-75
2022/12/14 07:52:14;;;;;;;1.17;1.17;;;2.10;99.90;;;;;;5067069;28;20106;-75
2022/12/14 07:54:46;;;;;;;1.08;1.05;;;2.20;99.90;;;;;;5068569;28;20034;-75
2022/12/14 07:57:12;;;;;;;0.32;0.32;;;2.30;99.90;;;;;;5068291;28;20555;-75
2022/12/14 07:59:37;;;;;;;23.77;22.63;;;2.30;99.90;;;;;;5068045;28;20625;-75
2022/12/14 08:02:03;;;;;;;0.55;0.55;;;2.40;99.90;;;;;;5072311;28;20042;-76
2022/12/14 08:04:29;;;;;;;0.00;0.00;;;2.40;99.90;;;;;;5078187;28;20055;-75
2022/12/14 08:06:55;;;;;;;3.45;3.35;;;1.10;99.90;;;;;;5080532;28;20687;-75
2022/12/14 08:09:20;;;;;;;0.10;0.10;;;2.60;99.90;;;;;;5080652;28;20666;-76
2022/12/14 08:11:46;;;;;;;0.50;0.50;;;2.80;99.90;;;;;;5100646;28;20020;-75
2022/12/14 08:14:18;;;;;;;8.73;8.43;;;2.80;99.90;;;;;;5100614;28;20024;-75
2022/12/14 08:16:47;;;;;;;0.00;0.00;;;2.80;99.90;;;;;;5101151;28;20032;-75
2022/12/14 08:19:17;;;;;;;0.20;0.20;;;2.80;99.90;;;;;;5084342;28;20080;-75
2022/12/14 08:21:44;;;;;;;0.20;0.20;;;2.80;99.90;;;;;;5087069;28;20111;-75
2022/12/14 08:24:12;;;;;;;4.00;3.80;;;2.80;99.90;;;;;;5084161;28;20040;-75
2022/12/14 08:26:38;;;;;;;0.40;0.40;;;2.80;99.90;;;;;;5084072;28;20162;-75
2022/12/14 08:29:04;;;;;;;1.08;1.08;;;2.80;99.90;;;;;;5088788;28;20100;-75
2022/12/14 08:31:31;;;;;;;3.33;3.22;;;2.90;99.90;;;;;;5086214;28;20032;-75
2022/12/14 08:33:58;;;;;;;28.98;26.52;;;2.90;99.90;;;;;;5085063;28;20158;-75
2022/12/14 08:36:29;;;;;;;0.25;0.25;;;3.00;99.90;;;;;;5085965;28;20024;-74
2022/12/14 08:39:00;;;;;;;15.07;14.50;;;3.00;99.90;;;;;;5083754;28;20221;-74
2022/12/14 08:41:26;;;;;;;15.57;14.25;;;3.00;99.90;;;;;;5084922;28;20107;-75
2022/12/14 08:43:57;;;;;;;0.30;0.30;;;3.00;99.90;;;;;;5092062;28;20039;-75
2022/12/14 08:46:24;;;;;;;0.10;0.10;;;3.00;99.90;;;;;;5084585;28;20016;-75
2022/12/14 08:48:52;;;;;;;8.00;7.57;;;3.00;99.90;;;;;;5085085;28;20024;-74
2022/12/14 08:51:19;;;;;;;3.72;3.58;;;3.00;99.90;;;;;;5082493;28;20666;-75
2022/12/14 08:53:48;;;;;;;25.33;21.45;;;3.10;99.90;;;;;;5088475;28;20150;-74
2022/12/14 08:56:18;;;;;;;0.25;0.25;;;3.10;99.90;;;;;;5095873;28;20016;-74
2022/12/14 08:58:44;;;;;;;0.68;0.68;;;3.10;99.90;;;;;;5093634;28;20577;-75
2022/12/14 09:01:14;;;;;;;0.10;0.10;;;3.20;99.90;;;;;;5094984;28;20502;-75
2022/12/14 09:03:47;;;;;;;31.45;29.80;;;3.20;99.90;;;;;;5089676;28;20059;-74
2022/12/14 09:06:17;;;;;;;16.98;13.80;;;3.20;99.90;;;;;;5104511;28;20070;-74
2022/12/14 09:08:44;;;;;;;0.30;0.30;;;3.30;99.90;;;;;;5089650;28;20049;-75
2022/12/14 09:11:13;;;;;;;23.58;9.23;;;3.30;99.90;;;;;;5066665;28;20641;-75
2022/12/14 09:13:39;;;;;;;40.83;38.58;;;3.30;99.90;;;;;;5083989;28;20024;-74
2022/12/14 09:16:09;;;;;;;7.90;7.57;;;3.30;99.90;;;;;;5084418;28;20091;-74
2022/12/14 09:18:35;;;;;;;1.60;1.55;;;3.30;99.90;;;;;;5084292;28;20107;-75
2022/12/14 09:21:01;;;;;;;5.25;5.05;;;3.30;99.90;;;;;;5071031;28;20048;-75
2022/12/14 09:23:28;;;;;;;0.00;0.00;;;3.30;99.90;;;;;;5088561;28;20024;-74
2022/12/14 09:26:02;;;;;;;33.65;31.92;;;3.40;99.90;;;;;;5091998;28;20023;-75
2022/12/14 09:28:30;;;;;;;0.00;0.00;;;3.40;99.90;;;;;;5102931;28;20001;-75
2022/12/14 09:31:08;;;;;;;2.00;1.95;;;3.40;99.90;;;;;;5102159;28;20119;-75
2022/12/14 09:33:35;;;;;;;2.28;2.08;;;3.50;99.90;;;;;;5099754;28;20016;-74
2022/12/14 09:36:03;;;;;;;2.40;2.33;;;3.60;99.90;;;;;;5076780;28;20624;-73
2022/12/14 09:38:32;;;;;;;11.27;10.82;;;3.70;99.90;;;;;;5090850;28;20077;-75
2022/12/14 09:41:22;;;;;;;21.00;20.05;;;3.50;99.90;;;;;;5108636;28;20023;-74
2022/12/14 09:44:27;;;;;;;0.63;0.63;;;3.70;99.90;;;;;;5096450;28;20100;-76
2022/12/14 09:47:12;;;;;;;0.10;0.10;;;5.40;99.90;;;;;;5069709;28;20036;-75
2022/12/14 09:49:52;;;;;;;0.50;0.50;;;4.10;99.90;;;;;;5102598;28;20028;-75
2022/12/14 09:52:22;;;;;;;0.10;0.10;;;4.10;99.90;;;;;;5103433;28;20012;-76
2022/12/14 09:54:49;;;;;;;1.35;1.35;;;4.20;99.90;;;;;;5077869;28;20417;-75
2022/12/14 09:57:42;;;;;;;1.13;1.08;;;4.30;99.90;;;;;;5099323;28;20705;-75
2022/12/14 10:00:17;;;;;;;0.52;0.52;;;4.50;99.90;;;;;;5092615;28;20016;-75
2022/12/14 10:03:05;;;;;;;25.70;24.52;;;4.60;99.90;;;;;;5104808;28;20478;-75
2022/12/14 10:05:58;;;;;;;2.08;1.98;;;4.70;99.90;;;;;;5080059;28;20058;-74
2022/12/14 10:08:53;;;;;;;9.95;8.98;;;4.80;99.90;;;;;;5097984;28;20044;-75
2022/12/14 10:11:22;;;;;;;0.10;0.10;;;4.60;99.90;;;;;;5090852;28;20016;-74
2022/12/14 10:14:22;;;;;;;0.90;0.90;;;5.00;99.90;;;;;;5068067;28;20030;-74
2022/12/14 10:17:20;;;;;;;1.20;1.17;;;5.10;99.90;;;;;;5091793;28;20051;-74
2022/12/14 10:19:54;;;;;;;0.10;0.10;;;4.90;99.90;;;;;;5094084;28;20024;-74
2022/12/14 10:22:53;;;;;;;3.10;2.97;;;5.00;99.90;;;;;;5085471;28;20099;-76
2022/12/14 10:25:30;;;;;;;2.03;1.92;;;5.00;99.90;;;;;;5022662;28;20124;-74
2022/12/14 10:28:06;;;;;;;0.40;0.40;;;5.00;99.90;;;;;;5022651;28;20034;-75
2022/12/14 10:30:34;;;;;;;40.72;36.45;;;5.10;99.90;;;;;;5031305;28;20029;-75
2022/12/14 10:33:20;;;;;;;0.30;0.30;;;5.00;99.90;;;;;;5029935;28;20026;-75
2022/12/14 10:35:53;;;;;;;4.00;3.80;;;5.00;99.90;;;;;;5033273;28;20036;-74
2022/12/14 10:38:22;;;;;;;0.28;0.28;;;5.00;99.90;;;;;;5021121;28;20052;-75
2022/12/14 10:40:49;;;;;;;3.70;3.53;;;5.10;99.90;;;;;;5023804;28;20029;-75
2022/12/14 10:43:44;;;;;;;6.55;6.28;;;5.00;99.90;;;;;;5035272;28;20061;-74
2022/12/14 10:46:38;;;;;;;0.10;0.10;;;5.00;99.90;;;;;;5032263;28;20037;-75
2022/12/14 10:49:29;;;;;;;0.40;0.40;;;5.00;99.90;;;;;;5019613;28;20030;-75
2022/12/14 10:52:05;;;;;;;4.00;3.80;;;5.00;99.90;;;;;;5019328;28;20021;-75
2022/12/14 10:54:45;;;;;;;0.52;0.52;;;4.90;99.90;;;;;;5030204;28;20085;-74
2022/12/14 10:57:19;;;;;;;5.35;5.15;;;4.80;99.90;;;;;;5033494;28;20081;-75
2022/12/14 10:59:46;;;;;;;0.50;0.50;;;4.60;99.90;;;;;;5015362;28;20025;-75
2022/12/14 11:02:18;;;;;;;56.85;54.55;;;4.70;99.90;;;;;;5069807;28;20032;-75
2022/12/14 11:04:59;;;;;;;1.42;1.42;;;4.70;99.90;;;;;;5084929;28;20300;-74
2022/12/14 11:07:42;;;;;;;0.20;0.20;;;4.70;99.90;;;;;;5083903;28;20032;-74
2022/12/14 11:10:17;;;;;;;1.65;1.65;;;4.60;99.90;;;;;;5086397;28;20020;-75
2022/12/14 11:13:15;;;;;;;0.10;0.10;;;4.70;99.90;;;;;;5067302;28;20318;-75
2022/12/14 11:15:46;;;;;;;6.10;5.57;;;4.70;99.90;;;;;;5084861;28;20329;-75
2022/12/14 11:18:15;;;;;;;1.80;1.75;;;4.70;99.90;;;;;;5083049;28;20458;-75
2022/12/14 11:20:56;;;;;;;10.02;9.27;;;4.70;99.90;;;;;;5087180;28;20199;-75
2022/12/14 11:23:25;;;;;;;3.03;2.92;;;4.70;99.90;;;;;;5086950;28;20095;-74
2022/12/14 11:25:57;;;;;;;4.22;4.07;;;4.70;99.90;;;;;;5083239;28;20028;-74
2022/12/14 11:29:06;;;;;;;7.05;6.65;;;4.70;99.90;;;;;;5086247;28;20023;-74
2022/12/14 11:31:37;;;;;;;17.17;16.42;;;4.70;99.90;;;;;;5093585;28;20111;-74
2022/12/14 11:34:05;;;;;;;2.88;2.78;;;4.70;99.90;;;;;;5089568;28;20151;-75
2022/12/14 11:36:41;;;;;;;1.17;1.17;;;4.60;99.90;;;;;;5087673;28;20058;-75
2022/12/14 11:39:12;;;;;;;0.43;0.43;;;4.70;99.90;;;;;;5097172;28;20050;-74
2022/12/14 11:41:45;;;;;;;44.63;31.88;;;4.70;99.90;;;;;;5077780;28;20024;-75
2022/12/14 11:44:14;;;;;;;54.42;51.88;;;4.70;99.90;;;;;;5103025;28;20036;-75
2022/12/14 11:46:55;;;;;;;0.73;0.73;;;4.70;99.90;;;;;;5100268;28;20054;-75
2022/12/14 11:49:43;;;;;;;10.15;9.65;;;4.40;99.90;;;;;;5100848;28;20061;-75
2022/12/14 11:52:24;;;;;;;17.58;16.80;;;6.80;99.90;;;;;;5096492;28;20350;-74
2022/12/14 11:54:53;;;;;;;4.10;3.90;;;4.50;99.90;;;;;;5093313;28;20265;-75
2022/12/14 11:57:53;;;;;;;133.40;126.15;;;4.60;99.90;;;;;;5091370;28;20756;-74
2022/12/14 12:00:48;;;;;;;63.97;33.97;;;4.60;99.90;;;;;;5014221;28;20037;-75
2022/12/14 12:03:24;;;;;;;0.20;0.20;;;4.60;99.90;;;;;;5014290;28;20339;-75
2022/12/14 12:05:51;;;;;;;0.65;0.65;;;4.60;99.90;;;;;;5009855;28;20137;-75
2022/12/14 12:08:24;;;;;;;27.33;26.05;;;4.50;99.90;;;;;;5017737;28;20045;-74
2022/12/14 12:10:54;;;;;;;0.47;0.45;;;4.40;99.90;;;;;;5002597;28;20053;-74
2022/12/14 12:13:25;;;;;;;0.28;0.28;;;4.40;99.90;;;;;;5013215;28;20563;-74
2022/12/14 12:16:24;;;;;;;0.47;0.47;;;4.20;99.90;;;;;;5005984;28;20029;-75
2022/12/14 12:19:19;;;;;;;4.80;4.50;;;4.20;99.90;;;;;;4994933;28;20334;-74
2022/12/14 12:21:46;;;;;;;3.67;3.58;;;4.10;99.90;;;;;;4999261;28;20027;-76
2022/12/14 12:24:15;;;;;;;6.13;5.85;;;4.30;99.90;;;;;;4994111;28;20069;-75
2022/12/14 12:26:56;;;;;;;0.75;0.75;;;4.30;99.90;;;;;;5022715;23;20084;-75
2022/12/14 12:29:30;;;;;;;0.10;0.10;;;4.30;99.90;;;;;;5018779;28;20029;-75
2022/12/14 12:32:04;;;;;;;0.10;0.10;;;4.40;99.90;;;;;;5039573;28;20029;-75
2022/12/14 12:34:42;;;;;;;0.00;0.00;;;4.40;99.90;;;;;;5044324;28;20326;-75
2022/12/14 12:37:17;;;;;;;0.00;0.00;;;4.40;99.90;;;;;;5045454;28;20104;-75
2022/12/14 12:39:48;;;;;;;5.60;5.18;;;4.10;99.90;;;;;;5041814;28;20033;-74
2022/12/14 12:42:24;;;;;;;0.82;0.82;;;4.20;99.90;;;;;;5042621;28;20035;-75
2022/12/14 12:45:02;;;;;;;2.30;2.20;;;4.30;99.90;;;;;;5037383;28;20496;-75
2022/12/14 12:47:33;;;;;;;0.10;0.10;;;4.10;99.90;;;;;;5028031;28;20040;-75
2022/12/14 12:50:09;;;;;;;35.85;14.15;;;4.20;99.90;;;;;;5036718;28;20105;-74
2022/12/14 12:52:56;;;;;;;0.55;0.55;;;4.30;99.90;;;;;;5043527;28;20048;-75
2022/12/14 12:55:27;;;;;;;1.30;1.27;;;4.50;99.90;;;;;;5042432;28;20026;-75
2022/12/14 12:58:01;;;;;;;0.40;0.40;;;4.50;99.90;;;;;;5039633;28;20107;-75
2022/12/14 13:00:29;;;;;;;0.28;0.28;;;4.50;99.90;;;;;;5028062;28;20044;-74
2022/12/14 13:03:17;;;;;;;7.95;6.80;;;4.50;99.90;;;;;;5027918;28;20128;-74
2022/12/14 13:05:45;;;;;;;0.22;0.22;;;4.50;99.90;;;;;;5027607;28;20034;-75
2022/12/14 13:08:33;;;;;;;11.25;10.80;;;4.60;99.90;;;;;;5027590;28;20029;-75
2022/12/14 13:11:01;;;;;;;18.58;17.83;;;4.60;99.90;;;;;;5026116;28;20108;-74
2022/12/14 13:13:31;;;;;;;13.15;12.50;;;4.60;99.90;;;;;;5032114;28;20037;-74
2022/12/14 13:16:31;;;;;;;4.22;4.10;;;4.70;99.90;;;;;;5009533;28;20022;-74
2022/12/14 13:19:10;;;;;;;6.65;6.30;;;4.60;99.90;;;;;;5023553;28;20021;-74
2022/12/14 13:21:42;;;;;;;33.45;31.48;;;4.70;99.90;;;;;;5014153;28;20636;-75
2022/12/14 13:24:20;;;;;;;0.10;0.10;;;4.60;99.90;;;;;;5035286;28;20082;-74
2022/12/14 13:27:25;;;;;;;20.15;18.83;;;4.60;99.90;;;;;;5026019;28;20592;-74
2022/12/14 13:30:27;;;;;;;1.95;1.85;;;4.60;99.90;;;;;;5033343;28;20049;-75
2022/12/14 13:33:38;;;;;;;6.70;6.43;;;4.50;99.90;;;;;;5026850;28;20116;-74
2022/12/14 13:36:44;;;;;;;26.80;25.73;;;4.40;99.90;;;;;;5034171;28;20041;-74
2022/12/14 13:39:45;;;;;;;2.22;2.13;;;4.50;99.90;;;;;;5032652;28;20018;-74
2022/12/14 13:42:32;;;;;;;38.88;26.35;;;4.50;99.90;;;;;;4970031;28;20031;-75
2022/12/14 13:44:59;;;;;;;0.00;0.00;;;4.50;99.90;;;;;;4970625;28;20045;-74
2022/12/14 13:47:43;;;;;;;110.47;102.18;;;4.50;99.90;;;;;;4971593;28;20094;-74
2022/12/14 13:50:37;;;;;;;3.22;3.13;;;4.50;99.90;;;;;;4973086;28;20094;-75
2022/12/14 13:53:15;;;;;;;27.27;25.77;;;4.50;99.90;;;;;;4969919;28;20026;-75